Time;durP1;ratioP1;P1;durP2;ratioP2;P2;SDS_P1;SDS_P2;PMS_P1;PMS_P2;Temp;Humidity;BMP_temperature;BMP_pressure;BME280_temperature;BME280_humidity;BME280_pressure;Samples;Min_cycle;Max_cycle;Signal;HPM_P1;HPM_P2
2024/03/25 00:00:14;;;;;;;8.70;5.20;;;;;;;3.65;100.00;99149.73;105838;1259;74645;-55
2024/03/25 00:02:41;;;;;;;6.80;5.20;;;;;;;3.64;100.00;99150.65;105833;1259;67078;-55
2024/03/25 00:05:09;;;;;;;9.40;6.20;;;;;;;3.65;100.00;99145.50;105905;1267;72528;-54
2024/03/25 00:07:39;;;;;;;6.50;5.60;;;;;;;3.65;100.00;99138.75;106173;1259;59879;-54
2024/03/25 00:10:08;;;;;;;9.00;6.30;;;;;;;3.64;100.00;99136.47;105793;1259;61210;-57
2024/03/25 00:12:35;;;;;;;10.40;6.40;;;;;;;3.63;100.00;99137.73;105904;1258;73957;-55
2024/03/25 00:15:03;;;;;;;12.10;6.70;;;;;;;3.61;100.00;99132.83;105923;1254;66500;-58
2024/03/25 00:17:30;;;;;;;8.40;6.40;;;;;;;3.56;100.00;99131.38;105945;1259;72283;-55
2024/03/25 00:19:58;;;;;;;10.20;8.30;;;;;;;3.53;100.00;99130.05;105814;1259;61419;-55
2024/03/25 00:22:25;;;;;;;12.60;8.80;;;;;;;3.48;100.00;99119.55;106158;1257;61301;-58
2024/03/25 00:24:52;;;;;;;9.90;7.00;;;;;;;3.42;100.00;99117.60;105849;1255;75197;-54
2024/03/25 00:27:19;;;;;;;9.80;6.60;;;;;;;3.35;100.00;99116.03;105834;1254;66028;-54
2024/03/25 00:29:47;;;;;;;9.40;6.50;;;;;;;3.30;100.00;99109.62;105770;1260;72710;-54
2024/03/25 00:32:14;;;;;;;7.70;5.40;;;;;;;3.27;100.00;99111.65;105803;1257;61307;-54
2024/03/25 00:34:42;;;;;;;9.40;6.70;;;;;;;3.23;100.00;99111.45;106035;1256;62623;-55
2024/03/25 00:37:09;;;;;;;7.10;5.40;;;;;;;3.21;100.00;99114.32;105812;1259;73431;-56
2024/03/25 00:39:36;;;;;;;11.20;6.80;;;;;;;3.21;100.00;99112.56;105825;1260;67375;-56
2024/03/25 00:42:06;;;;;;;7.20;6.30;;;;;;;3.22;100.00;99109.48;105781;1259;71951;-56
2024/03/25 00:44:33;;;;;;;10.10;6.10;;;;;;;3.27;100.00;99113.45;105822;1257;61513;-55
2024/03/25 00:47:00;;;;;;;8.30;5.80;;;;;;;3.31;100.00;99121.84;105964;1261;61206;-53
2024/03/25 00:49:27;;;;;;;8.50;6.60;;;;;;;3.34;100.00;99123.14;105747;1259;74674;-53
2024/03/25 00:51:54;;;;;;;10.20;7.60;;;;;;;3.38;100.00;99126.05;105875;1259;69372;-52
2024/03/25 00:54:23;;;;;;;10.20;9.00;;;;;;;3.42;100.00;99129.66;105837;1259;72728;-54
2024/03/25 00:56:51;;;;;;;17.10;9.80;;;;;;;3.43;100.00;99123.94;105759;1259;61248;-56
2024/03/25 00:59:18;;;;;;;12.90;10.20;;;;;;;3.42;100.00;99111.20;105956;1255;61370;-56
2024/03/25 01:01:45;;;;;;;12.80;10.70;;;;;;;3.38;100.00;99109.39;105848;1259;75189;-56
2024/03/25 01:04:13;;;;;;;13.10;9.30;;;;;;;3.32;100.00;99101.58;105717;1260;65815;-57
2024/03/25 01:06:40;;;;;;;12.20;9.80;;;;;;;3.27;100.00;99095.53;106421;1256;72731;-54
2024/03/25 01:09:07;;;;;;;11.00;7.30;;;;;;;3.25;100.00;99091.33;105692;1259;61374;-60
2024/03/25 01:11:35;;;;;;;12.30;7.20;;;;;;;3.25;100.00;99086.54;105848;1254;61355;-54
2024/03/25 01:14:02;;;;;;;9.20;5.70;;;;;;;3.26;100.00;99084.56;105806;1257;76529;-54
2024/03/25 01:16:29;;;;;;;8.60;6.90;;;;;;;3.27;100.00;99089.85;105734;1259;67145;-55
2024/03/25 01:18:58;;;;;;;8.50;7.60;;;;;;;3.29;100.00;99091.74;105656;1257;73214;-56
2024/03/25 01:21:25;;;;;;;9.10;6.30;;;;;;;3.31;100.00;99086.02;105713;1254;62038;-55
2024/03/25 01:23:52;;;;;;;7.60;6.70;;;;;;;3.32;100.00;99074.77;105757;1254;61224;-56
2024/03/25 01:26:20;;;;;;;8.40;7.60;;;;;;;3.33;100.00;99066.77;105831;1255;73533;-59
2024/03/25 01:28:47;;;;;;;9.80;8.30;;;;;;;3.34;100.00;99063.74;105692;1260;65421;-56
2024/03/25 01:31:14;;;;;;;8.70;7.50;;;;;;;3.35;100.00;99064.59;105821;1260;70483;-53
2024/03/25 01:33:42;;;;;;;9.00;8.10;;;;;;;3.37;100.00;99059.58;105922;1254;61356;-54
2024/03/25 01:36:11;;;;;;;10.10;8.70;;;;;;;3.36;100.00;99066.17;108963;1254;61302;-56
2024/03/25 01:38:38;;;;;;;11.10;9.70;;;;;;;3.35;100.00;99072.23;109057;1253;74696;-55
2024/03/25 01:41:09;;;;;;;9.30;7.60;;;;;;;3.34;100.00;99084.14;108879;1259;65762;-58
2024/03/25 01:43:37;;;;;;;8.80;7.70;;;;;;;3.34;100.00;99085.38;109092;1254;72759;-55
2024/03/25 01:46:05;;;;;;;8.80;7.50;;;;;;;3.34;100.00;99088.75;109072;1254;59825;-55
2024/03/25 01:48:32;;;;;;;8.40;7.10;;;;;;;3.31;100.00;99088.30;108810;1254;59332;-55
2024/03/25 01:50:59;;;;;;;8.90;6.50;;;;;;;3.27;100.00;99090.20;109058;1254;74028;-55
2024/03/25 01:53:27;;;;;;;10.00;6.60;;;;;;;3.23;100.00;99092.48;108977;1260;64914;-56
2024/03/25 01:55:56;;;;;;;8.60;6.70;;;;;;;3.22;100.00;99085.59;108822;1256;73179;-56
2024/03/25 01:58:23;;;;;;;8.00;6.20;;;;;;;3.21;100.00;99080.80;108819;1254;154522;-54
2024/03/25 02:01:30;;;;;;;13.30;7.60;;;;;;;3.23;100.00;99100.09;102624;1295;601541;-53
2024/03/25 02:03:57;;;;;;;8.00;6.70;;;;;;;3.20;100.00;99113.10;105756;1260;60658;-58
2024/03/25 02:06:26;;;;;;;13.20;8.90;;;;;;;3.19;100.00;99117.76;108674;1260;60101;-56
2024/03/25 02:08:54;;;;;;;16.20;8.70;;;;;;;3.19;100.00;99115.09;108633;1257;73097;-58
2024/03/25 02:11:23;;;;;;;9.20;8.30;;;;;;;3.19;100.00;99112.08;108644;1263;67708;-57
2024/03/25 02:13:50;;;;;;;7.90;7.10;;;;;;;3.20;100.00;99111.34;108769;1257;73160;-57
2024/03/25 02:16:17;;;;;;;8.90;7.20;;;;;;;3.20;100.00;99109.57;106064;1262;201243;-57
2024/03/25 02:18:44;;;;;;;8.10;6.50;;;;;;;3.19;100.00;99107.11;105832;1257;60159;-57
2024/03/25 02:21:12;;;;;;;12.40;6.60;;;;;;;3.18;100.00;99101.11;105846;1256;73091;-57
2024/03/25 02:23:39;;;;;;;6.40;5.40;;;;;;;3.18;100.00;99100.91;105834;1272;67598;-58
2024/03/25 02:26:06;;;;;;;7.50;5.90;;;;;;;3.20;100.00;99106.20;105960;1260;71878;-57
2024/03/25 02:28:33;;;;;;;7.40;5.20;;;;;;;3.22;100.00;99112.17;105842;1258;60929;-57
2024/03/25 02:31:00;;;;;;;6.30;4.40;;;;;;;3.25;100.00;99119.33;105940;1254;60552;-56
2024/03/25 02:33:27;;;;;;;4.80;4.40;;;;;;;3.29;100.00;99115.52;106020;1259;72984;-57
2024/03/25 02:35:55;;;;;;;7.60;4.60;;;;;;;3.33;100.00;99120.16;105954;1254;67393;-56
2024/03/25 02:38:22;;;;;;;7.90;5.10;;;;;;;3.34;100.00;99122.61;106014;1258;70181;-57
2024/03/25 02:40:49;;;;;;;6.40;5.60;;;;;;;3.33;100.00;99125.30;105839;1259;60399;-57
2024/03/25 02:43:21;;;;;;;7.10;6.00;;;;;;;3.33;100.00;99128.33;105784;1254;60455;-57
2024/03/25 02:45:48;;;;;;;7.60;5.50;;;;;;;3.32;100.00;99129.96;106123;1254;74334;-56
2024/03/25 02:48:15;;;;;;;7.10;5.90;;;;;;;3.28;100.00;99131.66;105960;1254;67016;-58
2024/03/25 02:50:42;;;;;;;11.10;7.00;;;;;;;3.24;100.00;99132.13;106047;1259;71865;-53
2024/03/25 02:53:09;;;;;;;7.50;6.70;;;;;;;3.20;100.00;99130.48;105936;1257;61439;-54
2024/03/25 02:55:36;;;;;;;7.10;6.40;;;;;;;3.16;100.00;99136.09;105970;1260;61454;-54
2024/03/25 02:58:03;;;;;;;6.00;5.40;;;;;;;3.11;100.00;99138.02;105884;1260;74318;-54
2024/03/25 03:00:31;;;;;;;8.10;5.30;;;;;;;3.09;100.00;99140.91;105938;1259;66920;-55
2024/03/25 03:02:58;;;;;;;8.80;5.80;;;;;;;3.06;100.00;99148.25;105855;1260;73655;-53
2024/03/25 03:05:25;;;;;;;8.00;4.30;;;;;;;3.04;100.00;99151.32;105928;1260;60919;-55
2024/03/25 03:07:52;;;;;;;9.30;5.30;;;;;;;3.04;100.00;99155.92;106004;1260;60486;-54
2024/03/25 03:10:19;;;;;;;6.00;4.70;;;;;;;3.05;100.00;99168.48;105985;1260;72646;-54
2024/03/25 03:12:46;;;;;;;3.60;2.70;;;;;;;3.07;100.00;99177.47;105921;1254;66764;-53
2024/03/25 03:15:15;;;;;;;5.60;4.50;;;;;;;3.11;100.00;99180.55;105921;1254;70640;-57
2024/03/25 03:17:42;;;;;;;5.80;3.20;;;;;;;3.15;100.00;99172.47;106026;1259;60945;-54
2024/03/25 03:20:10;;;;;;;3.40;3.10;;;;;;;3.16;100.00;99151.51;105960;1259;60863;-54
2024/03/25 03:22:37;;;;;;;6.40;4.60;;;;;;;3.17;100.00;99137.81;108501;1255;73885;-55
2024/03/25 03:25:05;;;;;;;6.30;3.90;;;;;;;3.18;100.00;99134.08;106100;1254;66773;-54
2024/03/25 03:27:32;;;;;;;4.30;3.80;;;;;;;3.20;100.00;99137.76;108976;1254;70450;-54
2024/03/25 03:29:59;;;;;;;3.90;3.10;;;;;;;3.21;100.00;99135.61;109015;1254;59391;-55
2024/03/25 03:32:26;;;;;;;6.80;3.20;;;;;;;3.22;100.00;99133.09;107101;1259;60457;-53
2024/03/25 03:34:53;;;;;;;3.80;2.20;;;;;;;3.25;100.00;99132.64;105969;1259;73897;-54
2024/03/25 03:37:21;;;;;;;5.00;2.10;;;;;;;3.28;100.00;99144.44;105881;1254;65929;-57
2024/03/25 03:39:48;;;;;;;2.10;1.70;;;;;;;3.31;100.00;99150.55;105907;1260;72673;-57
2024/03/25 03:42:15;;;;;;;2.10;1.60;;;;;;;3.34;100.00;99148.16;105902;1260;60700;-55
2024/03/25 03:44:42;;;;;;;4.50;1.80;;;;;;;3.37;100.00;99155.70;105980;1258;60186;-57
2024/03/25 03:47:09;;;;;;;3.00;1.50;;;;;;;3.41;100.00;99162.84;105904;1258;72486;-54
2024/03/25 03:49:36;;;;;;;2.20;1.80;;;;;;;3.43;100.00;99162.80;105894;1254;66998;-56
2024/03/25 03:52:04;;;;;;;3.60;2.40;;;;;;;3.46;100.00;99159.19;105965;1259;70870;-54
2024/03/25 03:54:31;;;;;;;3.30;2.10;;;;;;;3.47;100.00;99154.90;105975;1268;60517;-55
2024/03/25 03:56:58;;;;;;;3.10;2.70;;;;;;;3.46;100.00;99154.55;105937;1254;61568;-56
2024/03/25 03:59:26;;;;;;;2.60;2.20;;;;;;;3.45;100.00;99155.48;105949;1259;74634;-54
2024/03/25 04:01:53;;;;;;;3.90;2.80;;;;;;;3.45;100.00;99149.09;106019;1254;65825;-55
2024/03/25 04:04:20;;;;;;;3.00;2.80;;;;;;;3.45;100.00;99144.84;106542;1268;72688;-55
2024/03/25 04:06:48;;;;;;;3.50;3.20;;;;;;;3.45;100.00;99145.18;105950;1273;61256;-60
2024/03/25 04:09:15;;;;;;;3.80;3.40;;;;;;;3.46;100.00;99139.67;105943;1260;61382;-54
2024/03/25 04:11:42;;;;;;;3.30;2.20;;;;;;;3.45;100.00;99139.88;105941;1259;73851;-53
2024/03/25 04:14:10;;;;;;;2.10;1.90;;;;;;;3.42;100.00;99138.52;105977;1259;67155;-55
2024/03/25 04:16:37;;;;;;;4.20;2.50;;;;;;;3.42;100.00;99135.50;106060;1266;72823;-58
2024/03/25 04:19:04;;;;;;;4.80;2.30;;;;;;;3.45;100.00;99131.19;105871;1265;60486;-54
2024/03/25 04:21:32;;;;;;;3.10;2.30;;;;;;;3.47;100.00;99132.91;105931;1260;60144;-56
2024/03/25 04:23:59;;;;;;;3.40;2.20;;;;;;;3.49;100.00;99137.81;109227;1252;72644;-53
2024/03/25 04:26:26;;;;;;;2.80;2.20;;;;;;;3.51;100.00;99136.14;109026;1254;66718;-53
2024/03/25 04:28:53;;;;;;;3.90;2.50;;;;;;;3.55;100.00;99136.91;109034;1254;72760;-54
2024/03/25 04:31:20;;;;;;;3.50;1.70;;;;;;;3.60;100.00;99137.46;108954;1255;60598;-55
2024/03/25 04:33:48;;;;;;;4.30;2.60;;;;;;;3.64;100.00;99131.16;109212;1258;58736;-55
2024/03/25 04:36:15;;;;;;;2.80;1.80;;;;;;;3.67;100.00;99119.14;109032;1254;73882;-54
2024/03/25 04:38:42;;;;;;;3.70;2.90;;;;;;;3.68;100.00;99116.46;109072;1254;66987;-54
2024/03/25 04:41:10;;;;;;;3.40;3.00;;;;;;;3.64;100.00;99117.47;109010;1255;70543;-54
2024/03/25 04:43:37;;;;;;;5.40;3.10;;;;;;;3.63;100.00;99117.68;109032;1254;59332;-57
2024/03/25 04:46:04;;;;;;;5.80;3.50;;;;;;;3.63;100.00;99119.45;109134;1253;60029;-55
2024/03/25 04:48:32;;;;;;;5.70;2.90;;;;;;;3.65;100.00;99121.33;109135;1253;73871;-55
2024/03/25 04:51:00;;;;;;;2.70;2.30;;;;;;;3.68;100.00;99117.88;109028;1254;67484;-56
2024/03/25 04:53:27;;;;;;;4.10;2.40;;;;;;;3.66;100.00;99114.92;109107;1258;70614;-55
2024/03/25 04:55:54;;;;;;;2.40;2.10;;;;;;;3.64;100.00;99115.17;109097;1257;60598;-54
2024/03/25 04:58:21;;;;;;;4.50;1.90;;;;;;;3.64;100.00;99113.23;108975;1257;59237;-57
2024/03/25 05:00:48;;;;;;;2.20;1.80;;;;;;;3.66;100.00;99111.90;109044;1254;73995;-54
2024/03/25 05:03:16;;;;;;;6.80;2.40;;;;;;;3.69;100.00;99108.79;109153;1254;65834;-54
2024/03/25 05:05:43;;;;;;;6.40;2.60;;;;;;;3.72;100.00;99109.95;108915;1254;72728;-55
2024/03/25 05:08:10;;;;;;;3.90;3.40;;;;;;;3.76;100.00;99109.29;109043;1254;58876;-54
2024/03/25 05:10:37;;;;;;;6.30;2.60;;;;;;;3.82;100.00;99110.72;109008;1254;58718;-55
2024/03/25 05:13:05;;;;;;;4.70;3.80;;;;;;;3.86;100.00;99110.41;109021;1254;73894;-54
2024/03/25 05:15:32;;;;;;;4.30;3.90;;;;;;;3.90;100.00;99109.59;105973;1260;67175;-55
2024/03/25 05:17:59;;;;;;;4.20;3.60;;;;;;;3.90;100.00;99108.86;105952;1259;73863;-54
2024/03/25 05:20:27;;;;;;;8.70;5.40;;;;;;;3.91;100.00;99106.73;105979;1269;60536;-54
2024/03/25 05:22:55;;;;;;;5.70;5.20;;;;;;;3.90;100.00;99107.45;105947;1260;60542;-57
2024/03/25 05:25:28;;;;;;;6.40;5.00;;;;;;;3.90;100.00;99106.56;105965;1263;74314;-55
2024/03/25 05:27:55;;;;;;;5.90;4.60;;;;;;;3.91;100.00;99111.84;106080;1267;65714;-55
2024/03/25 05:30:23;;;;;;;5.40;4.60;;;;;;;3.94;100.00;99110.51;105883;1260;72906;-54
2024/03/25 05:32:50;;;;;;;5.50;4.30;;;;;;;3.99;100.00;99114.09;105886;1260;60829;-54
2024/03/25 05:35:17;;;;;;;7.50;5.30;;;;;;;4.04;100.00;99113.55;105895;1259;60620;-54
2024/03/25 05:37:44;;;;;;;6.20;5.60;;;;;;;4.08;100.00;99110.73;105960;1260;73907;-57
2024/03/25 05:40:11;;;;;;;6.60;5.60;;;;;;;4.12;100.00;99110.08;105990;1260;65913;-54
2024/03/25 05:42:39;;;;;;;7.20;4.30;;;;;;;4.17;100.00;99111.00;106009;1260;73186;-53
2024/03/25 05:45:06;;;;;;;6.90;5.50;;;;;;;4.23;100.00;99109.39;105912;1254;60692;-55
2024/03/25 05:47:34;;;;;;;7.80;5.70;;;;;;;4.27;100.00;99103.37;106296;1255;61414;-55
2024/03/25 05:50:03;;;;;;;9.30;6.40;;;;;;;4.33;100.00;99110.48;105995;1260;73870;-57
2024/03/25 05:52:30;;;;;;;10.30;6.50;;;;;;;4.38;100.00;99118.13;106164;1270;65243;-54
2024/03/25 05:54:58;;;;;;;10.40;6.80;;;;;;;4.41;100.00;99121.41;107411;1255;71325;-54
2024/03/25 05:57:25;;;;;;;12.80;7.20;;;;;;;4.44;100.00;99126.07;105905;1259;60492;-54
2024/03/25 05:59:52;;;;;;;8.00;5.70;;;;;;;4.47;100.00;99128.11;105933;1260;61282;-56
2024/03/25 06:02:19;;;;;;;7.30;5.60;;;;;;;4.52;100.00;99123.48;105866;1268;73755;-54
2024/03/25 06:04:46;;;;;;;6.90;5.10;;;;;;;4.57;100.00;99120.32;105897;1259;65504;-54
2024/03/25 06:07:13;;;;;;;9.90;5.10;;;;;;;4.63;100.00;99121.55;105828;1261;71903;-54
2024/03/25 06:09:41;;;;;;;7.30;4.90;;;;;;;4.68;100.00;99122.25;105875;1272;61221;-55
2024/03/25 06:12:08;;;;;;;6.20;4.70;;;;;;;4.74;100.00;99116.89;105849;1268;62091;-55
2024/03/25 06:14:35;;;;;;;9.10;5.60;;;;;;;4.79;100.00;99119.88;105732;1260;73460;-54
2024/03/25 06:17:03;;;;;;;9.60;6.80;;;;;;;4.87;100.00;99133.14;105848;1270;65383;-57
2024/03/25 06:19:30;;;;;;;11.70;7.00;;;;;;;4.94;100.00;99137.33;105744;1258;75105;-59
2024/03/25 06:21:57;;;;;;;9.30;7.00;;;;;;;5.01;100.00;99139.23;105802;1267;62220;-54
2024/03/25 09:11:26;;;;;;;3.60;0.70;;;;;;;7.77;100.00;99209.09;107183;1257;75987;-56
2024/03/25 09:13:54;;;;;;;2.90;0.80;;;;;;;7.81;100.00;99203.71;105932;1256;65375;-56
2024/03/25 09:16:22;;;;;;;2.90;0.70;;;;;;;7.82;100.00;99197.41;106378;1259;74366;-57
2024/03/25 09:18:51;;;;;;;1.70;0.70;;;;;;;7.81;100.00;99204.64;105904;1261;61438;-57
2024/03/25 09:21:20;;;;;;;2.90;0.80;;;;;;;7.79;100.00;99208.84;106402;1257;62248;-58
2024/03/25 09:23:47;;;;;;;5.00;1.10;;;;;;;7.76;100.00;99205.92;105936;1261;73024;-57
2024/03/25 09:26:15;;;;;;;4.20;0.80;;;;;;;7.71;100.00;99204.21;106008;1254;65937;-58
2024/03/25 09:28:42;;;;;;;7.00;1.10;;;;;;;7.66;100.00;99205.11;105880;1260;72170;-57
2024/03/25 09:31:09;;;;;;;6.10;2.00;;;;;;;7.68;100.00;99207.71;105944;1260;61668;-58
2024/03/25 09:33:37;;;;;;;4.50;0.80;;;;;;;7.74;100.00;99201.55;105861;1259;61195;-57
2024/03/25 09:36:05;;;;;;;3.40;0.90;;;;;;;7.80;100.00;99198.06;105908;1266;76857;-58
2024/03/25 09:38:32;;;;;;;2.70;0.90;;;;;;;7.82;100.00;99195.27;105951;1260;66478;-61
2024/03/25 09:41:00;;;;;;;3.90;0.80;;;;;;;7.83;100.00;99200.25;105924;1260;72853;-56
2024/03/25 09:43:43;;;;;;;5.10;1.00;;;;;;;7.86;100.00;99201.88;105850;1265;62248;-56
2024/03/25 09:46:10;;;;;;;2.90;0.70;;;;;;;7.88;100.00;99201.27;105927;1259;61366;-57
2024/03/25 09:48:37;;;;;;;2.00;0.80;;;;;;;7.87;100.00;99201.30;105902;1254;76941;-57
2024/03/25 09:51:05;;;;;;;1.60;0.70;;;;;;;7.81;100.00;99201.23;106081;1255;66525;-57
2024/03/25 09:53:32;;;;;;;2.40;0.80;;;;;;;7.77;100.00;99206.05;106786;1259;72047;-57
2024/03/25 09:56:00;;;;;;;1.80;0.80;;;;;;;7.75;100.00;99207.74;106258;1269;62430;-57
2024/03/25 09:58:27;;;;;;;2.70;1.00;;;;;;;7.71;100.00;99207.59;105931;1260;61401;-57
2024/03/25 10:00:55;;;;;;;3.40;1.30;;;;;;;7.67;100.00;99201.15;105802;1258;74981;-58
2024/03/25 10:03:22;;;;;;;4.10;0.80;;;;;;;7.66;100.00;99199.77;108004;1259;67094;-57
2024/03/25 10:05:50;;;;;;;2.60;0.70;;;;;;;7.70;100.00;99199.79;105878;1260;72724;-57
2024/03/25 10:08:28;;;;;;;0.90;0.60;;;;;;;7.75;100.00;99198.30;105727;1264;61515;-57
2024/03/25 10:10:55;;;;;;;5.30;0.70;;;;;;;7.79;100.00;99202.02;105841;1254;62075;-57
2024/03/25 10:13:23;;;;;;;2.60;0.80;;;;;;;7.84;100.00;99193.59;106068;1256;75174;-59
2024/03/25 10:15:50;;;;;;;6.30;0.60;;;;;;;7.86;100.00;99189.57;105853;1267;66642;-57
2024/03/25 10:18:17;;;;;;;2.10;0.90;;;;;;;7.89;100.00;99184.95;105871;1254;75220;-57
2024/03/25 10:20:51;;;;;;;2.90;0.70;;;;;;;7.97;100.00;99187.08;106196;1261;61208;-57
2024/03/25 10:23:28;;;;;;;2.20;0.60;;;;;;;8.04;100.00;99192.30;109022;1253;60180;-57
2024/03/25 10:25:55;;;;;;;3.80;0.60;;;;;;;8.08;100.00;99184.95;106940;1256;75478;-58
2024/03/25 10:28:22;;;;;;;3.00;0.50;;;;;;;8.10;100.00;99182.01;105925;1260;66861;-57
2024/03/25 10:30:49;;;;;;;4.10;0.70;;;;;;;8.10;100.00;99179.27;108993;1254;72020;-57
2024/03/25 10:33:17;;;;;;;3.30;0.70;;;;;;;8.13;100.00;99175.41;109051;1256;59587;-57
2024/03/25 10:35:44;;;;;;;4.30;0.60;;;;;;;8.21;100.00;99175.92;106859;1256;60981;-57
2024/03/25 10:38:12;;;;;;;4.40;1.90;;;;;;;8.29;100.00;99172.69;109075;1254;73691;-56
2024/03/25 10:40:39;;;;;;;4.90;1.00;;;;;;;8.35;100.00;99169.90;108927;1254;66978;-56
2024/03/25 10:43:11;;;;;;;2.40;1.10;;;;;;;8.32;100.00;99169.87;108994;1256;73266;-56
2024/03/25 10:45:40;;;;;;;4.20;1.50;;;;;;;8.29;100.00;99167.48;108862;1254;60893;-58
2024/03/25 10:48:17;;;;;;;3.80;0.80;;;;;;;8.27;100.00;99161.51;108861;1254;60222;-58
2024/03/25 10:50:45;;;;;;;2.90;0.90;;;;;;;8.22;100.00;99158.89;108793;1254;74839;-58
2024/03/25 10:53:12;;;;;;;2.80;1.00;;;;;;;8.15;100.00;99166.55;108791;1254;66359;-57
2024/03/25 10:55:39;;;;;;;5.20;1.10;;;;;;;8.12;100.00;99166.15;108973;1254;75010;-59
2024/03/25 10:58:07;;;;;;;4.00;0.90;;;;;;;8.11;100.00;99165.15;108971;1254;60192;-58
2024/03/25 11:00:35;;;;;;;6.20;2.20;;;;;;;8.10;100.00;99168.39;108882;1254;60120;-58
2024/03/25 11:03:02;;;;;;;3.60;0.70;;;;;;;8.09;100.00;99165.42;109093;1254;73719;-56
2024/03/25 11:05:30;;;;;;;2.70;0.50;;;;;;;8.09;100.00;99162.74;109027;1254;66301;-58
2024/03/25 11:07:58;;;;;;;0.70;0.30;;;;;;;8.05;100.00;99160.23;106412;1259;72247;-58
2024/03/25 11:10:29;;;;;;;1.30;0.40;;;;;;;8.03;100.00;99162.86;105879;1263;60310;-58
2024/03/25 11:12:56;;;;;;;0.80;0.40;;;;;;;8.00;100.00;99164.96;105940;1259;61227;-58
2024/03/25 11:15:24;;;;;;;0.80;0.40;;;;;;;7.95;100.00;99160.91;107487;1258;73535;-58
2024/03/25 11:17:51;;;;;;;1.00;0.50;;;;;;;7.92;100.00;99155.85;105794;1257;69572;-55
2024/03/25 11:20:18;;;;;;;2.40;0.50;;;;;;;7.92;100.00;99159.98;105828;1263;71807;-57
2024/03/25 11:22:49;;;;;;;1.70;0.30;;;;;;;7.90;100.00;99150.42;105889;1256;61349;-58
2024/03/25 11:25:17;;;;;;;3.30;0.50;;;;;;;7.89;100.00;99150.48;105995;1256;61192;-58
2024/03/25 11:27:45;;;;;;;1.50;0.40;;;;;;;7.89;100.00;99149.95;105862;1260;74712;-59
2024/03/25 11:30:15;;;;;;;1.60;0.40;;;;;;;7.87;100.00;99147.01;105808;1259;66515;-58
2024/03/25 11:33:04;;;;;;;0.90;0.30;;;;;;;7.82;100.00;99144.03;105851;1259;71797;-58
2024/03/25 11:35:38;;;;;;;1.20;0.40;;;;;;;7.77;100.00;99143.16;106277;1260;61414;-57
2024/03/25 11:38:05;;;;;;;6.70;0.40;;;;;;;7.73;100.00;99147.09;105928;1254;61353;-57
2024/03/25 11:40:32;;;;;;;2.00;0.40;;;;;;;7.68;100.00;99145.02;105832;1259;75002;-58
2024/03/25 11:42:59;;;;;;;1.20;0.40;;;;;;;7.65;100.00;99145.70;105888;1260;65929;-57
2024/03/25 11:45:27;;;;;;;1.70;0.40;;;;;;;7.62;100.00;99144.77;105761;1254;71511;-55
2024/03/25 11:47:54;;;;;;;4.20;0.30;;;;;;;7.57;100.00;99140.52;105866;1259;61391;-58
2024/03/25 11:50:21;;;;;;;1.50;0.40;;;;;;;7.52;100.00;99136.29;106093;1260;61416;-58
2024/03/25 11:52:49;;;;;;;0.80;0.30;;;;;;;7.47;100.00;99136.70;105874;1254;74059;-58
2024/03/25 11:55:17;;;;;;;1.30;0.40;;;;;;;7.42;100.00;99134.95;105870;1260;65764;-56
2024/03/25 11:57:44;;;;;;;2.80;1.00;;;;;;;7.42;100.00;99137.08;105786;1261;72815;-57
2024/03/25 12:00:14;;;;;;;1.40;0.40;;;;;;;7.43;100.00;99135.80;105789;1258;61240;-56
2024/03/25 12:02:45;;;;;;;1.00;0.30;;;;;;;7.41;100.00;99131.77;106501;1257;61407;-55
2024/03/25 12:05:16;;;;;;;1.00;0.40;;;;;;;7.40;100.00;99133.09;105826;1259;76719;-56
2024/03/25 12:07:44;;;;;;;1.30;0.50;;;;;;;7.42;100.00;99133.73;105986;1273;67076;-54
2024/03/25 12:12:58;;;;;;;2.40;0.70;;;;;;;7.54;100.00;99136.58;106075;1259;61199;-55
2024/03/25 12:15:26;;;;;;;1.10;0.40;;;;;;;7.59;100.00;99132.77;106141;1254;61305;-56
2024/03/25 12:17:53;;;;;;;1.60;0.40;;;;;;;7.66;100.00;99136.36;108571;1254;74310;-55
2024/03/25 12:20:23;;;;;;;1.80;0.40;;;;;;;7.72;100.00;99132.73;108970;1254;66265;-56
2024/03/25 12:22:50;;;;;;;2.40;0.50;;;;;;;7.76;100.00;99134.48;109007;1254;72175;-55
2024/03/25 12:25:18;;;;;;;1.10;0.40;;;;;;;7.81;100.00;99133.36;108811;1258;60744;-55
2024/03/25 12:27:46;;;;;;;2.30;0.50;;;;;;;7.84;100.00;99129.45;109029;1254;60095;-56
2024/03/25 12:30:13;;;;;;;0.80;0.30;;;;;;;7.86;100.00;99126.30;106706;1254;76825;-53
2024/03/25 12:32:44;;;;;;;2.30;0.40;;;;;;;7.88;100.00;99125.85;105786;1254;65865;-55
2024/03/25 12:35:13;;;;;;;2.70;0.60;;;;;;;7.90;100.00;99131.69;106136;1256;72128;-56
2024/03/25 12:37:40;;;;;;;0.60;0.30;;;;;;;7.85;100.00;99133.48;106506;1254;61247;-57
2024/03/25 12:40:10;;;;;;;3.30;0.30;;;;;;;7.78;100.00;99129.20;105972;1259;61125;-53
2024/03/25 12:42:39;;;;;;;1.20;0.40;;;;;;;7.73;100.00;99129.08;105973;1259;74705;-57
2024/03/25 12:45:07;;;;;;;0.90;0.30;;;;;;;7.70;100.00;99125.81;105826;1261;66630;-56
2024/03/25 12:47:35;;;;;;;2.10;0.80;;;;;;;7.69;100.00;99124.43;105914;1257;74925;-55
2024/03/25 12:50:03;;;;;;;1.60;0.40;;;;;;;7.66;100.00;99122.98;105817;1259;61942;-58
2024/03/25 12:52:30;;;;;;;2.80;0.50;;;;;;;7.62;100.00;99123.17;106449;1259;61257;-55
2024/03/25 12:54:58;;;;;;;1.20;0.40;;;;;;;7.58;100.00;99121.92;105872;1259;73485;-56
2024/03/25 12:57:25;;;;;;;1.50;0.50;;;;;;;7.54;100.00;99122.11;105881;1254;67203;-54
2024/03/25 12:59:52;;;;;;;0.80;0.40;;;;;;;7.53;100.00;99124.30;105812;1254;74432;-54
2024/03/25 13:02:20;;;;;;;1.70;0.50;;;;;;;7.52;100.00;99121.67;105962;1254;61387;-57
2024/03/25 13:04:47;;;;;;;1.40;0.50;;;;;;;7.49;100.00;99116.26;105938;1256;61291;-57
2024/03/25 13:07:14;;;;;;;0.90;0.30;;;;;;;7.47;100.00;99116.73;105809;1259;73380;-55
2024/03/25 13:09:41;;;;;;;1.60;0.30;;;;;;;7.48;100.00;99117.41;105773;1254;65891;-55
2024/03/25 13:12:09;;;;;;;0.90;0.20;;;;;;;7.49;100.00;99113.05;105878;1260;72921;-56
2024/03/25 13:14:37;;;;;;;0.70;0.30;;;;;;;7.48;100.00;99113.11;105858;1259;61372;-57
2024/03/25 13:17:04;;;;;;;1.00;0.30;;;;;;;7.46;100.00;99112.12;105729;1258;61641;-55
2024/03/25 13:19:31;;;;;;;1.70;0.50;;;;;;;7.44;100.00;99115.06;105751;1255;74726;-55
2024/03/25 13:21:58;;;;;;;2.40;0.40;;;;;;;7.43;100.00;99111.55;105769;1260;67319;-55
2024/03/25 13:24:26;;;;;;;0.90;0.30;;;;;;;7.40;100.00;99108.31;105715;1259;72848;-56
2024/03/25 13:26:53;;;;;;;3.30;0.30;;;;;;;7.34;100.00;99109.10;105716;1257;62172;-54
2024/03/25 13:29:20;;;;;;;1.00;0.30;;;;;;;7.28;100.00;99110.80;105833;1259;62136;-55
2024/03/25 13:31:47;;;;;;;2.30;0.30;;;;;;;7.22;100.00;99105.54;105768;1254;76882;-57
2024/03/25 13:34:17;;;;;;;3.00;0.40;;;;;;;7.20;100.00;99105.08;107142;1259;66759;-55
2024/03/25 13:36:44;;;;;;;1.80;0.60;;;;;;;7.18;100.00;99102.51;105765;1259;73332;-56
2024/03/25 13:39:12;;;;;;;2.70;0.80;;;;;;;7.17;100.00;99102.19;105688;1254;61582;-56
2024/03/25 13:41:39;;;;;;;1.30;0.40;;;;;;;7.18;100.00;99103.02;105789;1259;62073;-55
2024/03/25 13:44:06;;;;;;;2.50;0.60;;;;;;;7.20;100.00;99103.83;105894;1254;76416;-56
2024/03/25 13:46:34;;;;;;;1.10;0.60;;;;;;;7.22;100.00;99104.86;108880;1254;66454;-55
2024/03/25 13:49:01;;;;;;;1.50;0.70;;;;;;;7.23;100.00;99106.16;108953;1257;73084;-55
2024/03/25 13:51:29;;;;;;;2.00;0.50;;;;;;;7.24;100.00;99105.97;105913;1265;61313;-56
2024/03/25 13:53:56;;;;;;;0.90;0.30;;;;;;;7.23;100.00;99106.92;105854;1262;61193;-54
2024/03/25 13:56:23;;;;;;;1.40;0.50;;;;;;;7.20;100.00;99110.44;105794;1260;76808;-55
2024/03/25 13:58:50;;;;;;;2.40;0.40;;;;;;;7.16;100.00;99107.41;105725;1254;69612;-54
2024/03/25 14:01:18;;;;;;;4.10;0.40;;;;;;;7.12;100.00;99105.97;105777;1259;72856;-54
2024/03/25 14:03:46;;;;;;;1.00;0.40;;;;;;;7.09;100.00;99105.92;105830;1253;61178;-55
2024/03/25 14:06:13;;;;;;;4.10;0.50;;;;;;;7.05;100.00;99104.90;105736;1259;61263;-55
2024/03/25 14:08:42;;;;;;;1.80;0.50;;;;;;;7.04;100.00;99112.43;105791;1254;73442;-56
2024/03/25 14:11:09;;;;;;;1.00;0.40;;;;;;;7.02;100.00;99111.62;106390;1259;67098;-55
2024/03/25 14:13:36;;;;;;;1.20;0.30;;;;;;;6.99;100.00;99108.34;105771;1259;73313;-56
2024/03/25 14:18:41;;;;;;;2.10;0.30;;;;;;;6.98;100.00;99139.27;102546;1297;601162;-55